sensor_id;sensor_type;location;lat;lon;timestamp;P1;durP1;ratioP1;P2;durP2;ratioP2
9102;SDS011;4587;51.434;6.788;2023-05-24T00:01:50;12.43;;;2.93;;
9102;SDS011;4587;51.434;6.788;2023-05-24T00:04:16;8.47;;;2.60;;
9102;SDS011;4587;51.434;6.788;2023-05-24T00:06:43;12.67;;;3.03;;
9102;SDS011;4587;51.434;6.788;2023-05-24T00:09:09;10.37;;;2.90;;
9102;SDS011;4587;51.434;6.788;2023-05-24T00:11:36;9.67;;;2.73;;
9102;SDS011;4587;51.434;6.788;2023-05-24T00:14:01;9.40;;;2.63;;
9102;SDS011;4587;51.434;6.788;2023-05-24T00:16:27;11.60;;;2.60;;
9102;SDS011;4587;51.434;6.788;2023-05-24T00:18:52;8.50;;;2.63;;
9102;SDS011;4587;51.434;6.788;2023-05-24T00:21:19;9.87;;;3.00;;
9102;SDS011;4587;51.434;6.788;2023-05-24T00:23:44;11.87;;;2.50;;
9102;SDS011;4587;51.434;6.788;2023-05-24T00:26:10;11.60;;;2.73;;
9102;SDS011;4587;51.434;6.788;2023-05-24T00:28:36;13.23;;;2.90;;
9102;SDS011;4587;51.434;6.788;2023-05-24T00:31:01;12.47;;;3.13;;
9102;SDS011;4587;51.434;6.788;2023-05-24T00:33:27;15.77;;;3.63;;
9102;SDS011;4587;51.434;6.788;2023-05-24T00:35:53;12.60;;;3.00;;
9102;SDS011;4587;51.434;6.788;2023-05-24T00:38:22;10.80;;;2.80;;
9102;SDS011;4587;51.434;6.788;2023-05-24T00:40:51;12.70;;;2.90;;
9102;SDS011;4587;51.434;6.788;2023-05-24T00:43:17;12.70;;;3.23;;
9102;SDS011;4587;51.434;6.788;2023-05-24T00:45:43;14.30;;;3.07;;
9102;SDS011;4587;51.434;6.788;2023-05-24T00:48:09;10.10;;;2.93;;
9102;SDS011;4587;51.434;6.788;2023-05-24T00:50:35;11.67;;;3.17;;
9102;SDS011;4587;51.434;6.788;2023-05-24T00:53:05;11.83;;;3.57;;
9102;SDS011;4587;51.434;6.788;2023-05-24T00:55:32;13.43;;;3.50;;
9102;SDS011;4587;51.434;6.788;2023-05-24T00:57:59;15.93;;;3.60;;
9102;SDS011;4587;51.434;6.788;2023-05-24T01:00:26;9.83;;;3.53;;
9102;SDS011;4587;51.434;6.788;2023-05-24T01:02:53;10.20;;;2.80;;
9102;SDS011;4587;51.434;6.788;2023-05-24T01:05:19;12.83;;;3.27;;
9102;SDS011;4587;51.434;6.788;2023-05-24T01:07:49;11.13;;;3.10;;
9102;SDS011;4587;51.434;6.788;2023-05-24T01:11:10;17.80;;;4.00;;
9102;SDS011;4587;51.434;6.788;2023-05-24T01:16:10;10.10;;;2.90;;
9102;SDS011;4587;51.434;6.788;2023-05-24T01:18:45;15.33;;;3.13;;
9102;SDS011;4587;51.434;6.788;2023-05-24T01:24:17;13.20;;;2.70;;
9102;SDS011;4587;51.434;6.788;2023-05-24T01:27:07;13.60;;;3.63;;
9102;SDS011;4587;51.434;6.788;2023-05-24T01:29:35;9.77;;;2.90;;
9102;SDS011;4587;51.434;6.788;2023-05-24T01:32:02;13.27;;;3.40;;
9102;SDS011;4587;51.434;6.788;2023-05-24T01:34:28;13.63;;;3.13;;
9102;SDS011;4587;51.434;6.788;2023-05-24T01:36:53;20.93;;;4.27;;
9102;SDS011;4587;51.434;6.788;2023-05-24T01:39:19;13.60;;;3.20;;
9102;SDS011;4587;51.434;6.788;2023-05-24T01:41:50;16.80;;;3.87;;
9102;SDS011;4587;51.434;6.788;2023-05-24T01:44:42;16.70;;;3.33;;
9102;SDS011;4587;51.434;6.788;2023-05-24T01:50:24;10.77;;;3.30;;
9102;SDS011;4587;51.434;6.788;2023-05-24T01:52:56;12.87;;;3.53;;
9102;SDS011;4587;51.434;6.788;2023-05-24T01:55:24;17.17;;;3.30;;
9102;SDS011;4587;51.434;6.788;2023-05-24T01:57:52;12.47;;;3.30;;
9102;SDS011;4587;51.434;6.788;2023-05-24T02:00:21;11.77;;;3.40;;
9102;SDS011;4587;51.434;6.788;2023-05-24T02:02:47;11.97;;;3.20;;
9102;SDS011;4587;51.434;6.788;2023-05-24T02:05:13;10.87;;;3.73;;
9102;SDS011;4587;51.434;6.788;2023-05-24T02:07:38;12.83;;;3.80;;
9102;SDS011;4587;51.434;6.788;2023-05-24T02:10:05;13.10;;;3.90;;
9102;SDS011;4587;51.434;6.788;2023-05-24T02:12:31;12.20;;;3.43;;
9102;SDS011;4587;51.434;6.788;2023-05-24T02:14:57;11.47;;;3.33;;
9102;SDS011;4587;51.434;6.788;2023-05-24T02:17:24;15.03;;;3.80;;
9102;SDS011;4587;51.434;6.788;2023-05-24T02:19:50;14.67;;;3.70;;
9102;SDS011;4587;51.434;6.788;2023-05-24T02:22:16;11.97;;;3.40;;
9102;SDS011;4587;51.434;6.788;2023-05-24T02:24:42;13.47;;;4.10;;
9102;SDS011;4587;51.434;6.788;2023-05-24T02:27:07;11.97;;;3.47;;
9102;SDS011;4587;51.434;6.788;2023-05-24T02:29:33;12.43;;;3.50;;
9102;SDS011;4587;51.434;6.788;2023-05-24T02:31:58;15.23;;;3.43;;
9102;SDS011;4587;51.434;6.788;2023-05-24T02:34:24;11.57;;;3.50;;
9102;SDS011;4587;51.434;6.788;2023-05-24T02:36:56;13.57;;;3.77;;
9102;SDS011;4587;51.434;6.788;2023-05-24T02:39:22;12.97;;;3.57;;
9102;SDS011;4587;51.434;6.788;2023-05-24T02:41:47;14.27;;;3.77;;
9102;SDS011;4587;51.434;6.788;2023-05-24T02:44:13;16.97;;;4.10;;
9102;SDS011;4587;51.434;6.788;2023-05-24T02:46:38;12.93;;;3.70;;
9102;SDS011;4587;51.434;6.788;2023-05-24T02:49:04;13.17;;;3.63;;
9102;SDS011;4587;51.434;6.788;2023-05-24T02:51:29;10.60;;;3.30;;
9102;SDS011;4587;51.434;6.788;2023-05-24T02:53:56;16.10;;;4.13;;
9102;SDS011;4587;51.434;6.788;2023-05-24T02:56:22;14.70;;;3.80;;
9102;SDS011;4587;51.434;6.788;2023-05-24T02:58:48;12.37;;;3.87;;
9102;SDS011;4587;51.434;6.788;2023-05-24T03:01:13;11.13;;;3.90;;
9102;SDS011;4587;51.434;6.788;2023-05-24T03:03:39;13.87;;;3.70;;
9102;SDS011;4587;51.434;6.788;2023-05-24T03:06:05;14.67;;;3.90;;
9102;SDS011;4587;51.434;6.788;2023-05-24T03:08:31;12.17;;;3.83;;
9102;SDS011;4587;51.434;6.788;2023-05-24T03:10:58;16.57;;;4.27;;
9102;SDS011;4587;51.434;6.788;2023-05-24T03:13:23;11.53;;;3.60;;
9102;SDS011;4587;51.434;6.788;2023-05-24T03:15:49;16.10;;;3.97;;
9102;SDS011;4587;51.434;6.788;2023-05-24T03:18:15;17.73;;;4.17;;
9102;SDS011;4587;51.434;6.788;2023-05-24T03:20:40;17.20;;;4.03;;
9102;SDS011;4587;51.434;6.788;2023-05-24T03:23:06;12.37;;;3.93;;
9102;SDS011;4587;51.434;6.788;2023-05-24T03:25:33;18.13;;;3.83;;
9102;SDS011;4587;51.434;6.788;2023-05-24T03:27:59;14.47;;;4.30;;
9102;SDS011;4587;51.434;6.788;2023-05-24T03:30:26;17.00;;;4.30;;
9102;SDS011;4587;51.434;6.788;2023-05-24T03:32:52;12.53;;;3.70;;
9102;SDS011;4587;51.434;6.788;2023-05-24T03:35:17;16.63;;;3.73;;
9102;SDS011;4587;51.434;6.788;2023-05-24T03:37:43;12.73;;;3.87;;
9102;SDS011;4587;51.434;6.788;2023-05-24T03:40:09;14.83;;;4.30;;
9102;SDS011;4587;51.434;6.788;2023-05-24T03:42:34;15.40;;;4.37;;
9102;SDS011;4587;51.434;6.788;2023-05-24T03:45:00;11.20;;;4.13;;
9102;SDS011;4587;51.434;6.788;2023-05-24T03:47:26;17.57;;;4.20;;
9102;SDS011;4587;51.434;6.788;2023-05-24T03:49:51;17.53;;;4.87;;
9102;SDS011;4587;51.434;6.788;2023-05-24T03:52:17;16.57;;;4.43;;
9102;SDS011;4587;51.434;6.788;2023-05-24T03:54:42;16.93;;;4.77;;
9102;SDS011;4587;51.434;6.788;2023-05-24T03:57:09;16.87;;;4.60;;
9102;SDS011;4587;51.434;6.788;2023-05-24T03:59:35;16.17;;;4.47;;
9102;SDS011;4587;51.434;6.788;2023-05-24T04:02:00;14.17;;;4.47;;
9102;SDS011;4587;51.434;6.788;2023-05-24T04:04:26;13.73;;;4.47;;
9102;SDS011;4587;51.434;6.788;2023-05-24T04:06:52;17.73;;;5.03;;
9102;SDS011;4587;51.434;6.788;2023-05-24T04:09:17;18.13;;;5.03;;
9102;SDS011;4587;51.434;6.788;2023-05-24T04:11:43;19.70;;;4.73;;
9102;SDS011;4587;51.434;6.788;2023-05-24T04:14:09;17.70;;;4.90;;
9102;SDS011;4587;51.434;6.788;2023-05-24T04:16:36;16.90;;;5.43;;
9102;SDS011;4587;51.434;6.788;2023-05-24T04:19:03;20.70;;;4.80;;
9102;SDS011;4587;51.434;6.788;2023-05-24T04:21:29;21.77;;;5.20;;
9102;SDS011;4587;51.434;6.788;2023-05-24T04:23:56;17.03;;;4.93;;
9102;SDS011;4587;51.434;6.788;2023-05-24T04:26:24;15.40;;;4.67;;
9102;SDS011;4587;51.434;6.788;2023-05-24T04:28:49;14.40;;;5.07;;
9102;SDS011;4587;51.434;6.788;2023-05-24T04:31:15;22.00;;;5.10;;
9102;SDS011;4587;51.434;6.788;2023-05-24T04:33:41;16.70;;;5.13;;
9102;SDS011;4587;51.434;6.788;2023-05-24T04:36:06;18.20;;;4.37;;
9102;SDS011;4587;51.434;6.788;2023-05-24T04:38:32;20.37;;;4.53;;
9102;SDS011;4587;51.434;6.788;2023-05-24T04:41:02;21.57;;;5.50;;
9102;SDS011;4587;51.434;6.788;2023-05-24T04:43:30;19.23;;;4.97;;
9102;SDS011;4587;51.434;6.788;2023-05-24T04:45:56;22.40;;;5.43;;
9102;SDS011;4587;51.434;6.788;2023-05-24T04:48:22;18.57;;;5.30;;
9102;SDS011;4587;51.434;6.788;2023-05-24T04:50:52;19.03;;;5.17;;
9102;SDS011;4587;51.434;6.788;2023-05-24T04:53:19;16.43;;;4.97;;
9102;SDS011;4587;51.434;6.788;2023-05-24T04:55:45;15.33;;;4.90;;
9102;SDS011;4587;51.434;6.788;2023-05-24T04:58:12;18.70;;;5.47;;
9102;SDS011;4587;51.434;6.788;2023-05-24T05:00:38;15.73;;;5.00;;
9102;SDS011;4587;51.434;6.788;2023-05-24T05:03:03;19.50;;;5.80;;
9102;SDS011;4587;51.434;6.788;2023-05-24T05:05:29;17.17;;;5.30;;
9102;SDS011;4587;51.434;6.788;2023-05-24T05:07:55;23.63;;;5.53;;
9102;SDS011;4587;51.434;6.788;2023-05-24T05:10:21;19.23;;;6.00;;
9102;SDS011;4587;51.434;6.788;2023-05-24T05:12:46;21.43;;;5.90;;
9102;SDS011;4587;51.434;6.788;2023-05-24T05:15:12;15.90;;;5.50;;
9102;SDS011;4587;51.434;6.788;2023-05-24T05:17:38;19.03;;;5.77;;
9102;SDS011;4587;51.434;6.788;2023-05-24T05:20:04;21.00;;;5.53;;
9102;SDS011;4587;51.434;6.788;2023-05-24T05:22:30;17.33;;;5.17;;
9102;SDS011;4587;51.434;6.788;2023-05-24T05:24:56;24.63;;;5.50;;
9102;SDS011;4587;51.434;6.788;2023-05-24T05:27:22;23.23;;;5.60;;
9102;SDS011;4587;51.434;6.788;2023-05-24T05:29:47;17.53;;;5.33;;
9102;SDS011;4587;51.434;6.788;2023-05-24T05:32:13;26.17;;;6.17;;
9102;SDS011;4587;51.434;6.788;2023-05-24T05:34:39;19.60;;;5.67;;
9102;SDS011;4587;51.434;6.788;2023-05-24T05:37:05;28.30;;;6.33;;
9102;SDS011;4587;51.434;6.788;2023-05-24T05:39:30;27.00;;;6.33;;
9102;SDS011;4587;51.434;6.788;2023-05-24T05:41:56;26.80;;;5.97;;
9102;SDS011;4587;51.434;6.788;2023-05-24T05:44:22;20.43;;;6.30;;
9102;SDS011;4587;51.434;6.788;2023-05-24T05:46:47;27.57;;;6.13;;
9102;SDS011;4587;51.434;6.788;2023-05-24T05:49:13;26.07;;;6.50;;
9102;SDS011;4587;51.434;6.788;2023-05-24T05:51:40;24.07;;;6.70;;
9102;SDS011;4587;51.434;6.788;2023-05-24T05:54:05;26.60;;;6.83;;
9102;SDS011;4587;51.434;6.788;2023-05-24T05:56:38;27.63;;;7.07;;
9102;SDS011;4587;51.434;6.788;2023-05-24T05:59:09;24.83;;;6.90;;
9102;SDS011;4587;51.434;6.788;2023-05-24T06:01:41;23.87;;;6.77;;
9102;SDS011;4587;51.434;6.788;2023-05-24T06:04:07;22.53;;;6.60;;
9102;SDS011;4587;51.434;6.788;2023-05-24T06:06:33;23.83;;;6.40;;
9102;SDS011;4587;51.434;6.788;2023-05-24T06:08:58;20.50;;;6.50;;
9102;SDS011;4587;51.434;6.788;2023-05-24T06:11:24;27.83;;;8.37;;
9102;SDS011;4587;51.434;6.788;2023-05-24T06:13:51;28.07;;;7.50;;
9102;SDS011;4587;51.434;6.788;2023-05-24T06:16:16;29.40;;;7.23;;
9102;SDS011;4587;51.434;6.788;2023-05-24T06:18:42;23.07;;;7.53;;
9102;SDS011;4587;51.434;6.788;2023-05-24T06:21:08;20.40;;;6.63;;
9102;SDS011;4587;51.434;6.788;2023-05-24T06:23:35;20.23;;;5.47;;
9102;SDS011;4587;51.434;6.788;2023-05-24T06:26:01;25.27;;;6.57;;
9102;SDS011;4587;51.434;6.788;2023-05-24T06:28:27;20.30;;;6.20;;
9102;SDS011;4587;51.434;6.788;2023-05-24T06:30:53;20.63;;;6.30;;
9102;SDS011;4587;51.434;6.788;2023-05-24T06:33:19;20.53;;;6.00;;
9102;SDS011;4587;51.434;6.788;2023-05-24T06:35:44;20.57;;;5.23;;
9102;SDS011;4587;51.434;6.788;2023-05-24T06:38:10;12.40;;;4.00;;
9102;SDS011;4587;51.434;6.788;2023-05-24T06:40:36;15.27;;;4.17;;
9102;SDS011;4587;51.434;6.788;2023-05-24T06:43:01;17.00;;;4.80;;
9102;SDS011;4587;51.434;6.788;2023-05-24T06:45:28;19.03;;;4.93;;
9102;SDS011;4587;51.434;6.788;2023-05-24T06:47:53;13.20;;;4.53;;
9102;SDS011;4587;51.434;6.788;2023-05-24T06:50:19;15.60;;;5.00;;
9102;SDS011;4587;51.434;6.788;2023-05-24T06:52:44;15.03;;;4.40;;
9102;SDS011;4587;51.434;6.788;2023-05-24T06:55:10;13.67;;;4.77;;
9102;SDS011;4587;51.434;6.788;2023-05-24T06:57:35;15.30;;;4.50;;
9102;SDS011;4587;51.434;6.788;2023-05-24T07:00:01;14.30;;;4.30;;
9102;SDS011;4587;51.434;6.788;2023-05-24T07:02:29;14.87;;;4.90;;
9102;SDS011;4587;51.434;6.788;2023-05-24T07:04:54;13.10;;;4.60;;
9102;SDS011;4587;51.434;6.788;2023-05-24T07:07:20;15.80;;;4.73;;
9102;SDS011;4587;51.434;6.788;2023-05-24T07:09:46;12.53;;;4.20;;
9102;SDS011;4587;51.434;6.788;2023-05-24T07:12:12;18.23;;;4.40;;
9102;SDS011;4587;51.434;6.788;2023-05-24T07:14:37;17.27;;;4.43;;
9102;SDS011;4587;51.434;6.788;2023-05-24T07:17:03;14.40;;;4.53;;
9102;SDS011;4587;51.434;6.788;2023-05-24T07:19:28;14.43;;;4.47;;
9102;SDS011;4587;51.434;6.788;2023-05-24T07:21:54;16.50;;;4.27;;
9102;SDS011;4587;51.434;6.788;2023-05-24T07:24:20;12.80;;;4.03;;
9102;SDS011;4587;51.434;6.788;2023-05-24T07:26:48;13.23;;;3.87;;
9102;SDS011;4587;51.434;6.788;2023-05-24T07:29:14;13.47;;;4.03;;
9102;SDS011;4587;51.434;6.788;2023-05-24T07:31:40;11.03;;;3.80;;
9102;SDS011;4587;51.434;6.788;2023-05-24T07:34:06;15.40;;;4.40;;
9102;SDS011;4587;51.434;6.788;2023-05-24T07:36:32;14.57;;;4.40;;
9102;SDS011;4587;51.434;6.788;2023-05-24T07:38:57;11.27;;;3.40;;
9102;SDS011;4587;51.434;6.788;2023-05-24T07:41:25;11.17;;;3.50;;
9102;SDS011;4587;51.434;6.788;2023-05-24T07:43:51;12.07;;;4.40;;
9102;SDS011;4587;51.434;6.788;2023-05-24T07:46:19;11.97;;;3.90;;
9102;SDS011;4587;51.434;6.788;2023-05-24T07:48:45;14.33;;;4.20;;
9102;SDS011;4587;51.434;6.788;2023-05-24T07:51:11;10.53;;;3.67;;
9102;SDS011;4587;51.434;6.788;2023-05-24T07:53:36;11.10;;;3.60;;
9102;SDS011;4587;51.434;6.788;2023-05-24T07:56:02;12.30;;;4.10;;
9102;SDS011;4587;51.434;6.788;2023-05-24T07:58:28;14.77;;;4.57;;
9102;SDS011;4587;51.434;6.788;2023-05-24T08:00:53;10.47;;;3.93;;
9102;SDS011;4587;51.434;6.788;2023-05-24T08:03:19;15.10;;;4.30;;
9102;SDS011;4587;51.434;6.788;2023-05-24T08:05:45;13.23;;;3.80;;
9102;SDS011;4587;51.434;6.788;2023-05-24T08:08:11;9.97;;;3.60;;
9102;SDS011;4587;51.434;6.788;2023-05-24T08:10:36;11.87;;;3.60;;
9102;SDS011;4587;51.434;6.788;2023-05-24T08:13:02;10.73;;;3.50;;
9102;SDS011;4587;51.434;6.788;2023-05-24T08:15:29;11.33;;;3.60;;
9102;SDS011;4587;51.434;6.788;2023-05-24T08:17:54;12.53;;;3.93;;
9102;SDS011;4587;51.434;6.788;2023-05-24T08:20:20;15.10;;;3.73;;
9102;SDS011;4587;51.434;6.788;2023-05-24T08:22:46;11.53;;;4.03;;
9102;SDS011;4587;51.434;6.788;2023-05-24T08:25:12;11.90;;;3.77;;
9102;SDS011;4587;51.434;6.788;2023-05-24T08:27:38;12.70;;;3.57;;
9102;SDS011;4587;51.434;6.788;2023-05-24T08:30:04;13.77;;;3.90;;
9102;SDS011;4587;51.434;6.788;2023-05-24T08:32:31;13.60;;;3.87;;
9102;SDS011;4587;51.434;6.788;2023-05-24T08:34:57;17.03;;;3.90;;
9102;SDS011;4587;51.434;6.788;2023-05-24T08:37:22;11.60;;;3.83;;
9102;SDS011;4587;51.434;6.788;2023-05-24T08:39:48;14.43;;;3.77;;
9102;SDS011;4587;51.434;6.788;2023-05-24T08:42:14;11.43;;;3.40;;
9102;SDS011;4587;51.434;6.788;2023-05-24T08:44:46;10.03;;;3.30;;
9102;SDS011;4587;51.434;6.788;2023-05-24T08:47:13;13.37;;;3.83;;
9102;SDS011;4587;51.434;6.788;2023-05-24T08:49:40;11.83;;;3.40;;
9102;SDS011;4587;51.434;6.788;2023-05-24T08:52:06;12.10;;;4.10;;
9102;SDS011;4587;51.434;6.788;2023-05-24T08:54:35;10.90;;;3.30;;
9102;SDS011;4587;51.434;6.788;2023-05-24T08:57:01;11.60;;;3.40;;
9102;SDS011;4587;51.434;6.788;2023-05-24T08:59:27;10.13;;;3.33;;
9102;SDS011;4587;51.434;6.788;2023-05-24T09:01:53;11.27;;;3.70;;
9102;SDS011;4587;51.434;6.788;2023-05-24T09:04:21;12.63;;;3.80;;
9102;SDS011;4587;51.434;6.788;2023-05-24T09:06:48;13.10;;;3.90;;
9102;SDS011;4587;51.434;6.788;2023-05-24T09:09:17;11.30;;;3.90;;
9102;SDS011;4587;51.434;6.788;2023-05-24T09:11:45;14.97;;;4.50;;
9102;SDS011;4587;51.434;6.788;2023-05-24T09:14:13;13.30;;;4.33;;
9102;SDS011;4587;51.434;6.788;2023-05-24T09:16:39;14.77;;;4.13;;
9102;SDS011;4587;51.434;6.788;2023-05-24T09:19:05;11.67;;;4.10;;
9102;SDS011;4587;51.434;6.788;2023-05-24T09:21:31;15.50;;;4.60;;
9102;SDS011;4587;51.434;6.788;2023-05-24T09:23:57;15.60;;;4.83;;
9102;SDS011;4587;51.434;6.788;2023-05-24T09:26:24;15.90;;;4.17;;
9102;SDS011;4587;51.434;6.788;2023-05-24T09:28:56;18.97;;;5.43;;
9102;SDS011;4587;51.434;6.788;2023-05-24T09:31:39;13.20;;;4.60;;
9102;SDS011;4587;51.434;6.788;2023-05-24T09:34:09;13.60;;;4.00;;
9102;SDS011;4587;51.434;6.788;2023-05-24T09:36:39;9.80;;;3.60;;
9102;SDS011;4587;51.434;6.788;2023-05-24T09:39:07;15.23;;;4.30;;
9102;SDS011;4587;51.434;6.788;2023-05-24T09:41:37;11.87;;;3.57;;
9102;SDS011;4587;51.434;6.788;2023-05-24T09:44:03;10.30;;;3.83;;
9102;SDS011;4587;51.434;6.788;2023-05-24T09:46:35;13.73;;;3.50;;
9102;SDS011;4587;51.434;6.788;2023-05-24T09:49:02;13.20;;;3.80;;
9102;SDS011;4587;51.434;6.788;2023-05-24T09:51:30;10.17;;;3.60;;
9102;SDS011;4587;51.434;6.788;2023-05-24T09:54:00;9.50;;;3.23;;
9102;SDS011;4587;51.434;6.788;2023-05-24T09:56:26;14.00;;;3.60;;
9102;SDS011;4587;51.434;6.788;2023-05-24T09:58:52;10.60;;;3.70;;
9102;SDS011;4587;51.434;6.788;2023-05-24T10:01:21;10.37;;;3.37;;
9102;SDS011;4587;51.434;6.788;2023-05-24T10:03:51;11.13;;;3.37;;
9102;SDS011;4587;51.434;6.788;2023-05-24T10:06:21;18.70;;;4.67;;
9102;SDS011;4587;51.434;6.788;2023-05-24T10:08:47;18.50;;;4.30;;
9102;SDS011;4587;51.434;6.788;2023-05-24T10:11:18;12.40;;;3.80;;
9102;SDS011;4587;51.434;6.788;2023-05-24T10:13:45;14.27;;;4.50;;
9102;SDS011;4587;51.434;6.788;2023-05-24T10:16:12;12.03;;;4.23;;
9102;SDS011;4587;51.434;6.788;2023-05-24T10:18:37;12.23;;;3.57;;
9102;SDS011;4587;51.434;6.788;2023-05-24T10:21:06;12.23;;;3.10;;
9102;SDS011;4587;51.434;6.788;2023-05-24T10:23:33;9.60;;;3.40;;
9102;SDS011;4587;51.434;6.788;2023-05-24T10:26:07;14.10;;;3.70;;
9102;SDS011;4587;51.434;6.788;2023-05-24T10:28:35;10.43;;;3.67;;
9102;SDS011;4587;51.434;6.788;2023-05-24T10:31:14;9.57;;;3.20;;
9102;SDS011;4587;51.434;6.788;2023-05-24T10:33:51;11.47;;;3.53;;
9102;SDS011;4587;51.434;6.788;2023-05-24T10:36:20;14.90;;;3.63;;
9102;SDS011;4587;51.434;6.788;2023-05-24T10:38:46;7.97;;;3.50;;
9102;SDS011;4587;51.434;6.788;2023-05-24T10:41:12;10.07;;;3.40;;
9102;SDS011;4587;51.434;6.788;2023-05-24T10:43:38;9.97;;;3.37;;
9102;SDS011;4587;51.434;6.788;2023-05-24T10:46:04;10.50;;;3.20;;
9102;SDS011;4587;51.434;6.788;2023-05-24T10:48:33;9.83;;;3.50;;
9102;SDS011;4587;51.434;6.788;2023-05-24T10:51:00;13.57;;;4.13;;
9102;SDS011;4587;51.434;6.788;2023-05-24T10:54:13;11.30;;;3.33;;
9102;SDS011;4587;51.434;6.788;2023-05-24T10:56:44;10.30;;;3.47;;
9102;SDS011;4587;51.434;6.788;2023-05-24T11:01:59;11.40;;;3.00;;
9102;SDS011;4587;51.434;6.788;2023-05-24T11:04:25;8.27;;;2.93;;
9102;SDS011;4587;51.434;6.788;2023-05-24T11:06:55;8.93;;;2.93;;
9102;SDS011;4587;51.434;6.788;2023-05-24T11:09:25;10.43;;;3.20;;
9102;SDS011;4587;51.434;6.788;2023-05-24T11:12:03;10.97;;;3.67;;
9102;SDS011;4587;51.434;6.788;2023-05-24T11:14:33;10.23;;;3.50;;
9102;SDS011;4587;51.434;6.788;2023-05-24T11:17:06;9.37;;;3.20;;
9102;SDS011;4587;51.434;6.788;2023-05-24T11:19:33;12.70;;;3.97;;
9102;SDS011;4587;51.434;6.788;2023-05-24T11:22:09;12.67;;;3.30;;
9102;SDS011;4587;51.434;6.788;2023-05-24T11:24:39;12.00;;;3.37;;
9102;SDS011;4587;51.434;6.788;2023-05-24T11:27:05;10.00;;;3.53;;
9102;SDS011;4587;51.434;6.788;2023-05-24T11:29:31;11.33;;;3.40;;
9102;SDS011;4587;51.434;6.788;2023-05-24T11:32:04;6.30;;;2.90;;
9102;SDS011;4587;51.434;6.788;2023-05-24T11:34:30;9.83;;;3.67;;
9102;SDS011;4587;51.434;6.788;2023-05-24T11:36:57;9.97;;;3.37;;
9102;SDS011;4587;51.434;6.788;2023-05-24T11:39:27;9.10;;;3.20;;
9102;SDS011;4587;51.434;6.788;2023-05-24T11:41:54;9.67;;;3.03;;
9102;SDS011;4587;51.434;6.788;2023-05-24T11:44:20;8.47;;;3.40;;
9102;SDS011;4587;51.434;6.788;2023-05-24T11:46:46;9.70;;;2.90;;
9102;SDS011;4587;51.434;6.788;2023-05-24T11:49:12;12.60;;;3.30;;
9102;SDS011;4587;51.434;6.788;2023-05-24T11:51:39;14.83;;;3.57;;
9102;SDS011;4587;51.434;6.788;2023-05-24T11:54:05;9.20;;;3.33;;
9102;SDS011;4587;51.434;6.788;2023-05-24T11:56:31;11.50;;;3.77;;
9102;SDS011;4587;51.434;6.788;2023-05-24T12:01:42;10.70;;;3.67;;
9102;SDS011;4587;51.434;6.788;2023-05-24T12:04:09;10.00;;;3.90;;
9102;SDS011;4587;51.434;6.788;2023-05-24T12:06:37;14.70;;;3.57;;
9102;SDS011;4587;51.434;6.788;2023-05-24T12:09:07;16.03;;;4.00;;
9102;SDS011;4587;51.434;6.788;2023-05-24T12:11:41;12.27;;;3.80;;
9102;SDS011;4587;51.434;6.788;2023-05-24T12:14:12;11.20;;;3.43;;
9102;SDS011;4587;51.434;6.788;2023-05-24T12:16:38;12.00;;;3.60;;
9102;SDS011;4587;51.434;6.788;2023-05-24T12:19:04;9.17;;;3.13;;
9102;SDS011;4587;51.434;6.788;2023-05-24T12:21:30;11.93;;;3.80;;
9102;SDS011;4587;51.434;6.788;2023-05-24T12:24:03;12.37;;;3.60;;
9102;SDS011;4587;51.434;6.788;2023-05-24T12:26:39;9.70;;;3.47;;
9102;SDS011;4587;51.434;6.788;2023-05-24T12:29:06;11.13;;;4.07;;
9102;SDS011;4587;51.434;6.788;2023-05-24T12:31:31;10.33;;;3.00;;
9102;SDS011;4587;51.434;6.788;2023-05-24T12:33:58;11.37;;;3.50;;
9102;SDS011;4587;51.434;6.788;2023-05-24T12:36:23;10.77;;;3.47;;
9102;SDS011;4587;51.434;6.788;2023-05-24T12:38:49;12.53;;;3.70;;
9102;SDS011;4587;51.434;6.788;2023-05-24T12:41:15;12.70;;;3.50;;
9102;SDS011;4587;51.434;6.788;2023-05-24T12:43:41;9.90;;;3.40;;
9102;SDS011;4587;51.434;6.788;2023-05-24T12:46:08;8.93;;;3.00;;
9102;SDS011;4587;51.434;6.788;2023-05-24T12:48:33;12.87;;;3.73;;
9102;SDS011;4587;51.434;6.788;2023-05-24T12:50:59;10.20;;;3.20;;
9102;SDS011;4587;51.434;6.788;2023-05-24T12:53:26;6.07;;;3.20;;
9102;SDS011;4587;51.434;6.788;2023-05-24T12:55:51;8.20;;;3.03;;
9102;SDS011;4587;51.434;6.788;2023-05-24T12:58:20;10.60;;;3.70;;
9102;SDS011;4587;51.434;6.788;2023-05-24T13:00:45;7.30;;;3.30;;
9102;SDS011;4587;51.434;6.788;2023-05-24T13:03:14;9.70;;;3.50;;
9102;SDS011;4587;51.434;6.788;2023-05-24T13:05:39;9.60;;;3.37;;
9102;SDS011;4587;51.434;6.788;2023-05-24T13:08:05;14.03;;;3.93;;
9102;SDS011;4587;51.434;6.788;2023-05-24T13:10:31;9.53;;;3.30;;
9102;SDS011;4587;51.434;6.788;2023-05-24T13:12:56;8.37;;;3.50;;
9102;SDS011;4587;51.434;6.788;2023-05-24T13:15:22;8.97;;;3.60;;
9102;SDS011;4587;51.434;6.788;2023-05-24T13:17:48;12.47;;;3.70;;
9102;SDS011;4587;51.434;6.788;2023-05-24T13:20:14;7.80;;;3.23;;
9102;SDS011;4587;51.434;6.788;2023-05-24T13:22:40;10.97;;;3.23;;
9102;SDS011;4587;51.434;6.788;2023-05-24T13:25:06;10.20;;;3.50;;
9102;SDS011;4587;51.434;6.788;2023-05-24T13:27:33;9.00;;;3.20;;
9102;SDS011;4587;51.434;6.788;2023-05-24T13:29:59;9.43;;;3.73;;
9102;SDS011;4587;51.434;6.788;2023-05-24T13:32:24;7.80;;;3.43;;
9102;SDS011;4587;51.434;6.788;2023-05-24T13:34:50;7.77;;;3.40;;
9102;SDS011;4587;51.434;6.788;2023-05-24T13:37:15;10.80;;;3.87;;
9102;SDS011;4587;51.434;6.788;2023-05-24T13:39:41;8.33;;;3.13;;
9102;SDS011;4587;51.434;6.788;2023-05-24T13:42:07;10.10;;;3.27;;
9102;SDS011;4587;51.434;6.788;2023-05-24T13:44:34;9.13;;;3.40;;
9102;SDS011;4587;51.434;6.788;2023-05-24T13:47:00;9.03;;;3.23;;
9102;SDS011;4587;51.434;6.788;2023-05-24T13:49:26;9.70;;;3.37;;
9102;SDS011;4587;51.434;6.788;2023-05-24T13:51:52;7.80;;;3.10;;
9102;SDS011;4587;51.434;6.788;2023-05-24T13:54:18;9.73;;;3.30;;
9102;SDS011;4587;51.434;6.788;2023-05-24T13:56:43;10.83;;;3.30;;
9102;SDS011;4587;51.434;6.788;2023-05-24T13:59:09;7.73;;;3.43;;
9102;SDS011;4587;51.434;6.788;2023-05-24T14:01:35;12.07;;;3.40;;
9102;SDS011;4587;51.434;6.788;2023-05-24T14:04:01;8.63;;;3.00;;
9102;SDS011;4587;51.434;6.788;2023-05-24T14:06:28;9.40;;;3.53;;
9102;SDS011;4587;51.434;6.788;2023-05-24T14:08:54;10.03;;;3.43;;
9102;SDS011;4587;51.434;6.788;2023-05-24T14:11:20;8.93;;;3.23;;
9102;SDS011;4587;51.434;6.788;2023-05-24T14:13:46;11.40;;;3.50;;
9102;SDS011;4587;51.434;6.788;2023-05-24T14:16:12;9.87;;;3.43;;
9102;SDS011;4587;51.434;6.788;2023-05-24T14:18:38;9.17;;;3.50;;
9102;SDS011;4587;51.434;6.788;2023-05-24T14:21:04;8.20;;;3.40;;
9102;SDS011;4587;51.434;6.788;2023-05-24T14:23:30;8.43;;;3.50;;
9102;SDS011;4587;51.434;6.788;2023-05-24T14:25:58;10.37;;;3.57;;
9102;SDS011;4587;51.434;6.788;2023-05-24T14:28:24;10.10;;;3.87;;
9102;SDS011;4587;51.434;6.788;2023-05-24T14:30:50;10.30;;;4.80;;
9102;SDS011;4587;51.434;6.788;2023-05-24T14:33:16;10.33;;;3.60;;
9102;SDS011;4587;51.434;6.788;2023-05-24T14:35:41;10.40;;;3.70;;
9102;SDS011;4587;51.434;6.788;2023-05-24T14:38:08;9.43;;;3.53;;
9102;SDS011;4587;51.434;6.788;2023-05-24T14:40:35;7.97;;;3.37;;
9102;SDS011;4587;51.434;6.788;2023-05-24T14:43:03;7.90;;;3.10;;
9102;SDS011;4587;51.434;6.788;2023-05-24T14:45:30;8.20;;;3.53;;
9102;SDS011;4587;51.434;6.788;2023-05-24T14:47:56;11.90;;;3.57;;
9102;SDS011;4587;51.434;6.788;2023-05-24T14:50:22;8.67;;;3.53;;
9102;SDS011;4587;51.434;6.788;2023-05-24T14:52:47;9.93;;;3.50;;
9102;SDS011;4587;51.434;6.788;2023-05-24T14:55:13;8.40;;;3.30;;
9102;SDS011;4587;51.434;6.788;2023-05-24T14:57:38;8.63;;;3.30;;
9102;SDS011;4587;51.434;6.788;2023-05-24T15:00:06;11.17;;;3.53;;
9102;SDS011;4587;51.434;6.788;2023-05-24T15:02:32;11.83;;;4.00;;
9102;SDS011;4587;51.434;6.788;2023-05-24T15:04:58;10.43;;;3.60;;
9102;SDS011;4587;51.434;6.788;2023-05-24T15:07:26;9.53;;;3.80;;
9102;SDS011;4587;51.434;6.788;2023-05-24T15:09:52;10.47;;;3.67;;
9102;SDS011;4587;51.434;6.788;2023-05-24T15:12:18;9.37;;;3.90;;
9102;SDS011;4587;51.434;6.788;2023-05-24T15:14:44;8.77;;;3.70;;
9102;SDS011;4587;51.434;6.788;2023-05-24T15:17:10;9.70;;;3.77;;
9102;SDS011;4587;51.434;6.788;2023-05-24T15:19:36;10.13;;;3.77;;